sensor_id;sensor_type;location;lat;lon;timestamp;P1;durP1;ratioP1;P2;durP2;ratioP2
22318;SDS011;11327;52.334;9.506;2022-10-28T00:00:53;9.80;;;3.45;;
22318;SDS011;11327;52.334;9.506;2022-10-28T00:04:15;7.70;;;3.77;;
22318;SDS011;11327;52.334;9.506;2022-10-28T00:07:36;8.85;;;3.55;;
22318;SDS011;11327;52.334;9.506;2022-10-28T00:11:01;7.30;;;3.25;;
22318;SDS011;11327;52.334;9.506;2022-10-28T00:14:24;7.05;;;3.92;;
22318;SDS011;11327;52.334;9.506;2022-10-28T00:17:45;8.13;;;3.40;;
22318;SDS011;11327;52.334;9.506;2022-10-28T00:21:07;8.60;;;4.05;;
22318;SDS011;11327;52.334;9.506;2022-10-28T00:24:30;6.12;;;3.37;;
22318;SDS011;11327;52.334;9.506;2022-10-28T00:27:51;8.08;;;3.70;;
22318;SDS011;11327;52.334;9.506;2022-10-28T00:31:15;9.03;;;4.25;;
22318;SDS011;11327;52.334;9.506;2022-10-28T00:34:37;7.72;;;3.85;;
22318;SDS011;11327;52.334;9.506;2022-10-28T00:37:58;8.98;;;3.70;;
22318;SDS011;11327;52.334;9.506;2022-10-28T00:41:24;6.83;;;3.62;;
22318;SDS011;11327;52.334;9.506;2022-10-28T00:45:03;9.33;;;3.70;;
22318;SDS011;11327;52.334;9.506;2022-10-28T00:48:24;6.05;;;3.62;;
22318;SDS011;11327;52.334;9.506;2022-10-28T00:51:45;5.92;;;3.30;;
22318;SDS011;11327;52.334;9.506;2022-10-28T00:55:08;5.78;;;3.55;;
22318;SDS011;11327;52.334;9.506;2022-10-28T00:58:29;7.65;;;4.20;;
22318;SDS011;11327;52.334;9.506;2022-10-28T01:01:51;7.60;;;3.67;;
22318;SDS011;11327;52.334;9.506;2022-10-28T01:05:12;9.43;;;3.55;;
22318;SDS011;11327;52.334;9.506;2022-10-28T01:08:36;8.73;;;3.92;;
22318;SDS011;11327;52.334;9.506;2022-10-28T01:15:41;10.17;;;3.63;;
22318;SDS011;11327;52.334;9.506;2022-10-28T01:22:53;9.88;;;3.98;;
22318;SDS011;11327;52.334;9.506;2022-10-28T01:37:12;10.13;;;4.10;;
22318;SDS011;11327;52.334;9.506;2022-10-28T01:40:46;8.20;;;3.80;;
22318;SDS011;11327;52.334;9.506;2022-10-28T01:44:30;6.00;;;3.55;;
22318;SDS011;11327;52.334;9.506;2022-10-28T01:47:58;9.23;;;3.58;;
22318;SDS011;11327;52.334;9.506;2022-10-28T01:51:40;7.28;;;3.75;;
22318;SDS011;11327;52.334;9.506;2022-10-28T01:55:14;8.85;;;3.30;;
22318;SDS011;11327;52.334;9.506;2022-10-28T01:58:43;10.10;;;4.10;;
22318;SDS011;11327;52.334;9.506;2022-10-28T02:02:05;8.45;;;3.92;;
22318;SDS011;11327;52.334;9.506;2022-10-28T02:05:35;6.35;;;3.80;;
22318;SDS011;11327;52.334;9.506;2022-10-28T02:09:11;8.08;;;3.50;;
22318;SDS011;11327;52.334;9.506;2022-10-28T02:12:50;8.10;;;3.62;;
22318;SDS011;11327;52.334;9.506;2022-10-28T02:23:31;8.13;;;3.35;;
22318;SDS011;11327;52.334;9.506;2022-10-28T02:27:05;8.45;;;3.60;;
22318;SDS011;11327;52.334;9.506;2022-10-28T02:30:32;9.00;;;3.45;;
22318;SDS011;11327;52.334;9.506;2022-10-28T02:34:03;12.00;;;4.45;;
22318;SDS011;11327;52.334;9.506;2022-10-28T02:37:27;8.53;;;4.17;;
22318;SDS011;11327;52.334;9.506;2022-10-28T02:40:53;7.83;;;3.27;;
22318;SDS011;11327;52.334;9.506;2022-10-28T02:44:18;11.88;;;3.47;;
22318;SDS011;11327;52.334;9.506;2022-10-28T02:47:47;9.50;;;3.70;;
22318;SDS011;11327;52.334;9.506;2022-10-28T02:51:10;7.17;;;3.60;;
22318;SDS011;11327;52.334;9.506;2022-10-28T02:54:36;7.30;;;3.27;;
22318;SDS011;11327;52.334;9.506;2022-10-28T02:57:59;8.15;;;3.50;;
22318;SDS011;11327;52.334;9.506;2022-10-28T03:01:20;7.35;;;3.40;;
22318;SDS011;11327;52.334;9.506;2022-10-28T03:04:41;8.18;;;3.65;;
22318;SDS011;11327;52.334;9.506;2022-10-28T03:08:01;7.83;;;3.22;;
22318;SDS011;11327;52.334;9.506;2022-10-28T03:11:23;8.80;;;3.62;;
22318;SDS011;11327;52.334;9.506;2022-10-28T03:14:44;9.30;;;3.30;;
22318;SDS011;11327;52.334;9.506;2022-10-28T03:18:05;8.78;;;3.62;;
22318;SDS011;11327;52.334;9.506;2022-10-28T03:21:26;7.67;;;3.77;;
22318;SDS011;11327;52.334;9.506;2022-10-28T03:24:47;8.88;;;3.60;;
22318;SDS011;11327;52.334;9.506;2022-10-28T03:28:08;11.75;;;3.30;;
22318;SDS011;11327;52.334;9.506;2022-10-28T03:31:28;9.03;;;3.80;;
22318;SDS011;11327;52.334;9.506;2022-10-28T03:34:49;8.15;;;3.77;;
22318;SDS011;11327;52.334;9.506;2022-10-28T03:38:10;9.10;;;3.30;;
22318;SDS011;11327;52.334;9.506;2022-10-28T03:41:31;6.97;;;3.27;;
22318;SDS011;11327;52.334;9.506;2022-10-28T03:44:52;8.50;;;3.60;;
22318;SDS011;11327;52.334;9.506;2022-10-28T03:48:13;8.28;;;3.37;;
22318;SDS011;11327;52.334;9.506;2022-10-28T03:51:34;7.85;;;3.33;;
22318;SDS011;11327;52.334;9.506;2022-10-28T03:54:55;6.78;;;3.15;;
22318;SDS011;11327;52.334;9.506;2022-10-28T03:58:16;9.00;;;3.35;;
22318;SDS011;11327;52.334;9.506;2022-10-28T04:01:37;7.70;;;3.47;;
22318;SDS011;11327;52.334;9.506;2022-10-28T04:04:58;9.60;;;3.80;;
22318;SDS011;11327;52.334;9.506;2022-10-28T04:08:19;9.03;;;3.75;;
22318;SDS011;11327;52.334;9.506;2022-10-28T04:11:41;8.68;;;3.62;;
22318;SDS011;11327;52.334;9.506;2022-10-28T04:15:02;6.87;;;3.62;;
22318;SDS011;11327;52.334;9.506;2022-10-28T04:18:23;6.55;;;3.42;;
22318;SDS011;11327;52.334;9.506;2022-10-28T04:21:44;9.10;;;3.77;;
22318;SDS011;11327;52.334;9.506;2022-10-28T04:25:05;8.98;;;3.92;;
22318;SDS011;11327;52.334;9.506;2022-10-28T04:28:26;9.15;;;3.70;;
22318;SDS011;11327;52.334;9.506;2022-10-28T04:31:47;9.18;;;4.05;;
22318;SDS011;11327;52.334;9.506;2022-10-28T04:35:08;9.88;;;3.92;;
22318;SDS011;11327;52.334;9.506;2022-10-28T04:38:30;10.30;;;4.00;;
22318;SDS011;11327;52.334;9.506;2022-10-28T04:41:51;8.40;;;3.72;;
22318;SDS011;11327;52.334;9.506;2022-10-28T04:45:12;9.15;;;4.10;;
22318;SDS011;11327;52.334;9.506;2022-10-28T04:48:35;7.42;;;3.80;;
22318;SDS011;11327;52.334;9.506;2022-10-28T04:51:56;8.83;;;3.92;;
22318;SDS011;11327;52.334;9.506;2022-10-28T04:55:17;8.53;;;3.60;;
22318;SDS011;11327;52.334;9.506;2022-10-28T04:58:38;6.22;;;3.72;;
22318;SDS011;11327;52.334;9.506;2022-10-28T05:01:59;9.18;;;3.65;;
22318;SDS011;11327;52.334;9.506;2022-10-28T05:05:20;7.22;;;4.03;;
22318;SDS011;11327;52.334;9.506;2022-10-28T05:08:42;10.13;;;3.52;;
22318;SDS011;11327;52.334;9.506;2022-10-28T05:12:03;8.15;;;3.85;;
22318;SDS011;11327;52.334;9.506;2022-10-28T05:15:24;7.85;;;3.83;;
22318;SDS011;11327;52.334;9.506;2022-10-28T05:18:46;9.13;;;3.80;;
22318;SDS011;11327;52.334;9.506;2022-10-28T05:22:07;7.50;;;3.58;;
22318;SDS011;11327;52.334;9.506;2022-10-28T05:25:27;10.85;;;4.20;;
22318;SDS011;11327;52.334;9.506;2022-10-28T05:28:49;11.95;;;3.80;;
22318;SDS011;11327;52.334;9.506;2022-10-28T05:32:10;7.37;;;3.58;;
22318;SDS011;11327;52.334;9.506;2022-10-28T05:35:31;8.90;;;3.60;;
22318;SDS011;11327;52.334;9.506;2022-10-28T05:38:52;7.67;;;3.75;;
22318;SDS011;11327;52.334;9.506;2022-10-28T05:42:13;8.35;;;3.45;;
22318;SDS011;11327;52.334;9.506;2022-10-28T05:45:34;6.47;;;3.52;;
22318;SDS011;11327;52.334;9.506;2022-10-28T05:48:55;5.85;;;3.65;;
22318;SDS011;11327;52.334;9.506;2022-10-28T05:52:16;9.48;;;3.77;;
22318;SDS011;11327;52.334;9.506;2022-10-28T05:55:37;6.30;;;3.72;;
22318;SDS011;11327;52.334;9.506;2022-10-28T05:58:58;9.25;;;3.52;;
22318;SDS011;11327;52.334;9.506;2022-10-28T06:02:19;8.20;;;3.58;;
22318;SDS011;11327;52.334;9.506;2022-10-28T06:05:40;8.58;;;3.95;;
22318;SDS011;11327;52.334;9.506;2022-10-28T06:09:04;9.13;;;3.90;;
22318;SDS011;11327;52.334;9.506;2022-10-28T06:12:25;9.58;;;3.65;;
22318;SDS011;11327;52.334;9.506;2022-10-28T06:15:50;6.78;;;3.47;;
22318;SDS011;11327;52.334;9.506;2022-10-28T06:19:11;8.88;;;3.55;;
22318;SDS011;11327;52.334;9.506;2022-10-28T06:22:32;11.80;;;3.80;;
22318;SDS011;11327;52.334;9.506;2022-10-28T06:25:56;8.40;;;3.45;;
22318;SDS011;11327;52.334;9.506;2022-10-28T06:29:18;8.28;;;3.42;;
22318;SDS011;11327;52.334;9.506;2022-10-28T06:32:40;10.72;;;3.58;;
22318;SDS011;11327;52.334;9.506;2022-10-28T06:36:00;8.83;;;3.98;;
22318;SDS011;11327;52.334;9.506;2022-10-28T06:39:21;11.68;;;3.83;;
22318;SDS011;11327;52.334;9.506;2022-10-28T06:42:42;6.47;;;3.22;;
22318;SDS011;11327;52.334;9.506;2022-10-28T06:46:03;7.80;;;4.00;;
22318;SDS011;11327;52.334;9.506;2022-10-28T06:49:25;12.03;;;3.83;;
22318;SDS011;11327;52.334;9.506;2022-10-28T06:52:47;12.37;;;3.70;;
22318;SDS011;11327;52.334;9.506;2022-10-28T06:56:08;9.15;;;3.70;;
22318;SDS011;11327;52.334;9.506;2022-10-28T06:59:30;7.62;;;3.83;;
22318;SDS011;11327;52.334;9.506;2022-10-28T07:02:51;14.03;;;3.77;;
22318;SDS011;11327;52.334;9.506;2022-10-28T07:06:13;9.70;;;3.70;;
22318;SDS011;11327;52.334;9.506;2022-10-28T07:09:34;11.73;;;3.72;;
22318;SDS011;11327;52.334;9.506;2022-10-28T07:12:57;8.80;;;3.87;;
22318;SDS011;11327;52.334;9.506;2022-10-28T07:16:18;9.23;;;3.30;;
22318;SDS011;11327;52.334;9.506;2022-10-28T07:19:39;8.58;;;3.35;;
22318;SDS011;11327;52.334;9.506;2022-10-28T07:23:00;10.53;;;4.00;;
22318;SDS011;11327;52.334;9.506;2022-10-28T07:26:22;7.72;;;3.87;;
22318;SDS011;11327;52.334;9.506;2022-10-28T07:29:43;11.40;;;3.70;;
22318;SDS011;11327;52.334;9.506;2022-10-28T07:33:04;8.88;;;3.65;;
22318;SDS011;11327;52.334;9.506;2022-10-28T07:36:25;10.45;;;4.00;;
22318;SDS011;11327;52.334;9.506;2022-10-28T07:39:46;6.58;;;3.25;;
22318;SDS011;11327;52.334;9.506;2022-10-28T07:43:07;7.97;;;3.70;;
22318;SDS011;11327;52.334;9.506;2022-10-28T07:46:28;8.53;;;3.67;;
22318;SDS011;11327;52.334;9.506;2022-10-28T07:49:50;7.67;;;3.65;;
22318;SDS011;11327;52.334;9.506;2022-10-28T07:53:11;12.70;;;4.10;;
22318;SDS011;11327;52.334;9.506;2022-10-28T07:56:32;11.05;;;3.85;;
22318;SDS011;11327;52.334;9.506;2022-10-28T07:59:53;11.05;;;3.90;;
22318;SDS011;11327;52.334;9.506;2022-10-28T08:03:14;10.05;;;3.90;;
22318;SDS011;11327;52.334;9.506;2022-10-28T08:06:35;9.43;;;3.70;;
22318;SDS011;11327;52.334;9.506;2022-10-28T08:09:56;10.15;;;3.50;;
22318;SDS011;11327;52.334;9.506;2022-10-28T08:13:17;7.30;;;3.52;;
22318;SDS011;11327;52.334;9.506;2022-10-28T08:16:38;9.83;;;3.55;;
22318;SDS011;11327;52.334;9.506;2022-10-28T08:19:59;11.40;;;3.22;;
22318;SDS011;11327;52.334;9.506;2022-10-28T08:23:20;10.20;;;3.60;;
22318;SDS011;11327;52.334;9.506;2022-10-28T08:26:41;12.10;;;3.75;;
22318;SDS011;11327;52.334;9.506;2022-10-28T08:30:02;7.75;;;3.50;;
22318;SDS011;11327;52.334;9.506;2022-10-28T08:33:24;8.60;;;3.52;;
22318;SDS011;11327;52.334;9.506;2022-10-28T08:36:45;10.20;;;3.55;;
22318;SDS011;11327;52.334;9.506;2022-10-28T08:40:07;7.85;;;3.40;;
22318;SDS011;11327;52.334;9.506;2022-10-28T08:51:18;12.30;;;4.17;;
22318;SDS011;11327;52.334;9.506;2022-10-28T09:01:47;8.60;;;3.70;;
22318;SDS011;11327;52.334;9.506;2022-10-28T09:08:47;7.53;;;3.67;;
22318;SDS011;11327;52.334;9.506;2022-10-28T09:13:15;8.63;;;3.92;;
22318;SDS011;11327;52.334;9.506;2022-10-28T09:15:50;8.25;;;3.85;;
22318;SDS011;11327;52.334;9.506;2022-10-28T09:22:53;10.40;;;3.45;;
22318;SDS011;11327;52.334;9.506;2022-10-28T09:40:49;11.70;;;4.00;;
22318;SDS011;11327;52.334;9.506;2022-10-28T09:44:17;8.58;;;3.62;;
22318;SDS011;11327;52.334;9.506;2022-10-28T09:47:56;13.08;;;3.40;;
22318;SDS011;11327;52.334;9.506;2022-10-28T09:54:55;9.13;;;3.50;;
22318;SDS011;11327;52.334;9.506;2022-10-28T09:58:19;10.63;;;3.20;;
22318;SDS011;11327;52.334;9.506;2022-10-28T10:01:40;8.70;;;3.30;;
22318;SDS011;11327;52.334;9.506;2022-10-28T10:05:09;12.28;;;3.75;;
22318;SDS011;11327;52.334;9.506;2022-10-28T10:08:27;7.45;;;3.55;;
22318;SDS011;11327;52.334;9.506;2022-10-28T10:11:51;12.07;;;3.62;;
22318;SDS011;11327;52.334;9.506;2022-10-28T10:15:22;10.13;;;3.30;;
22318;SDS011;11327;52.334;9.506;2022-10-28T10:18:58;9.65;;;3.70;;
22318;SDS011;11327;52.334;9.506;2022-10-28T10:22:32;10.78;;;3.80;;
22318;SDS011;11327;52.334;9.506;2022-10-28T10:26:11;7.78;;;2.95;;
22318;SDS011;11327;52.334;9.506;2022-10-28T10:29:33;7.95;;;3.08;;
22318;SDS011;11327;52.334;9.506;2022-10-28T10:32:56;9.08;;;3.47;;
22318;SDS011;11327;52.334;9.506;2022-10-28T10:36:18;10.80;;;3.45;;
22318;SDS011;11327;52.334;9.506;2022-10-28T10:39:42;8.78;;;3.47;;
22318;SDS011;11327;52.334;9.506;2022-10-28T10:46:41;8.28;;;3.00;;
22318;SDS011;11327;52.334;9.506;2022-10-28T10:53:48;8.33;;;3.65;;
22318;SDS011;11327;52.334;9.506;2022-10-28T10:57:19;10.75;;;3.58;;
22318;SDS011;11327;52.334;9.506;2022-10-28T11:00:42;7.50;;;3.67;;
22318;SDS011;11327;52.334;9.506;2022-10-28T11:07:27;10.75;;;3.10;;
22318;SDS011;11327;52.334;9.506;2022-10-28T11:11:01;11.33;;;3.45;;
22318;SDS011;11327;52.334;9.506;2022-10-28T11:14:30;11.87;;;3.60;;
22318;SDS011;11327;52.334;9.506;2022-10-28T11:32:17;10.72;;;3.22;;
22318;SDS011;11327;52.334;9.506;2022-10-28T11:36:02;10.63;;;3.37;;
22318;SDS011;11327;52.334;9.506;2022-10-28T11:54:34;13.48;;;3.70;;
22318;SDS011;11327;52.334;9.506;2022-10-28T12:02:10;8.00;;;3.02;;
22318;SDS011;11327;52.334;9.506;2022-10-28T12:19:36;7.05;;;3.22;;
22318;SDS011;11327;52.334;9.506;2022-10-28T12:22:57;9.47;;;3.53;;
22318;SDS011;11327;52.334;9.506;2022-10-28T12:26:21;10.70;;;3.60;;
22318;SDS011;11327;52.334;9.506;2022-10-28T12:29:47;10.78;;;3.42;;
22318;SDS011;11327;52.334;9.506;2022-10-28T12:33:14;12.13;;;3.45;;
22318;SDS011;11327;52.334;9.506;2022-10-28T12:36:41;13.18;;;4.30;;
22318;SDS011;11327;52.334;9.506;2022-10-28T12:40:51;8.25;;;2.90;;
22318;SDS011;11327;52.334;9.506;2022-10-28T12:43:34;9.43;;;3.20;;
22318;SDS011;11327;52.334;9.506;2022-10-28T12:54:32;9.58;;;3.35;;
22318;SDS011;11327;52.334;9.506;2022-10-28T12:57:41;6.70;;;2.90;;
22318;SDS011;11327;52.334;9.506;2022-10-28T13:01:14;8.25;;;3.00;;
22318;SDS011;11327;52.334;9.506;2022-10-28T13:04:37;12.40;;;3.52;;
22318;SDS011;11327;52.334;9.506;2022-10-28T13:11:50;9.80;;;2.83;;
22318;SDS011;11327;52.334;9.506;2022-10-28T13:22:28;13.98;;;3.58;;
22318;SDS011;11327;52.334;9.506;2022-10-28T13:26:04;8.73;;;3.30;;
22318;SDS011;11327;52.334;9.506;2022-10-28T13:29:30;12.53;;;3.85;;
22318;SDS011;11327;52.334;9.506;2022-10-28T13:33:08;9.65;;;3.55;;
22318;SDS011;11327;52.334;9.506;2022-10-28T13:36:28;9.45;;;3.47;;
22318;SDS011;11327;52.334;9.506;2022-10-28T13:39:58;14.60;;;3.90;;
22318;SDS011;11327;52.334;9.506;2022-10-28T13:43:19;11.12;;;3.55;;
22318;SDS011;11327;52.334;9.506;2022-10-28T13:50:32;12.25;;;3.65;;
22318;SDS011;11327;52.334;9.506;2022-10-28T13:53:54;8.85;;;3.65;;
22318;SDS011;11327;52.334;9.506;2022-10-28T14:00:52;9.60;;;3.30;;
22318;SDS011;11327;52.334;9.506;2022-10-28T14:04:21;9.93;;;3.00;;
22318;SDS011;11327;52.334;9.506;2022-10-28T14:07:52;7.55;;;3.05;;
22318;SDS011;11327;52.334;9.506;2022-10-28T14:11:21;11.43;;;3.47;;
22318;SDS011;11327;52.334;9.506;2022-10-28T14:14:51;8.58;;;3.27;;
22318;SDS011;11327;52.334;9.506;2022-10-28T14:18:24;9.10;;;3.55;;
22318;SDS011;11327;52.334;9.506;2022-10-28T14:22:05;8.45;;;3.22;;
22318;SDS011;11327;52.334;9.506;2022-10-28T14:29:21;7.78;;;2.92;;
22318;SDS011;11327;52.334;9.506;2022-10-28T14:39:48;7.55;;;3.87;;
22318;SDS011;11327;52.334;9.506;2022-10-28T14:50:53;10.68;;;3.90;;
22318;SDS011;11327;52.334;9.506;2022-10-28T14:54:16;11.48;;;4.33;;
22318;SDS011;11327;52.334;9.506;2022-10-28T14:57:42;11.97;;;3.77;;
22318;SDS011;11327;52.334;9.506;2022-10-28T15:04:38;6.42;;;3.25;;
22318;SDS011;11327;52.334;9.506;2022-10-28T15:08:01;8.68;;;3.47;;
22318;SDS011;11327;52.334;9.506;2022-10-28T15:11:23;7.80;;;3.40;;
22318;SDS011;11327;52.334;9.506;2022-10-28T15:14:52;8.58;;;3.70;;
22318;SDS011;11327;52.334;9.506;2022-10-28T15:18:24;14.85;;;3.70;;
22318;SDS011;11327;52.334;9.506;2022-10-28T15:22:02;9.78;;;3.70;;
22318;SDS011;11327;52.334;9.506;2022-10-28T15:25:28;10.43;;;3.65;;
22318;SDS011;11327;52.334;9.506;2022-10-28T15:28:49;9.73;;;3.50;;
22318;SDS011;11327;52.334;9.506;2022-10-28T15:32:12;8.20;;;3.72;;
22318;SDS011;11327;52.334;9.506;2022-10-28T15:35:36;9.00;;;3.05;;
22318;SDS011;11327;52.334;9.506;2022-10-28T15:39:08;8.50;;;3.22;;
22318;SDS011;11327;52.334;9.506;2022-10-28T15:42:42;10.90;;;3.67;;
22318;SDS011;11327;52.334;9.506;2022-10-28T15:46:09;14.73;;;3.30;;
22318;SDS011;11327;52.334;9.506;2022-10-28T15:49:37;8.80;;;3.40;;
22318;SDS011;11327;52.334;9.506;2022-10-28T15:56:33;9.68;;;3.40;;
22318;SDS011;11327;52.334;9.506;2022-10-28T16:03:50;11.20;;;3.70;;
22318;SDS011;11327;52.334;9.506;2022-10-28T16:07:11;8.93;;;3.55;;
22318;SDS011;11327;52.334;9.506;2022-10-28T16:10:34;10.48;;;3.52;;
22318;SDS011;11327;52.334;9.506;2022-10-28T16:13:57;9.10;;;3.45;;
22318;SDS011;11327;52.334;9.506;2022-10-28T16:17:22;10.05;;;3.33;;
22318;SDS011;11327;52.334;9.506;2022-10-28T16:20:46;10.03;;;3.55;;
22318;SDS011;11327;52.334;9.506;2022-10-28T16:24:07;10.35;;;3.40;;
22318;SDS011;11327;52.334;9.506;2022-10-28T16:27:31;10.60;;;3.58;;
22318;SDS011;11327;52.334;9.506;2022-10-28T16:30:52;12.47;;;3.90;;
22318;SDS011;11327;52.334;9.506;2022-10-28T16:34:15;12.47;;;3.77;;
22318;SDS011;11327;52.334;9.506;2022-10-28T16:37:36;10.35;;;3.55;;
22318;SDS011;11327;52.334;9.506;2022-10-28T16:40:58;13.53;;;4.53;;
22318;SDS011;11327;52.334;9.506;2022-10-28T16:44:20;12.23;;;4.35;;
22318;SDS011;11327;52.334;9.506;2022-10-28T16:47:43;11.85;;;3.67;;
22318;SDS011;11327;52.334;9.506;2022-10-28T16:51:08;14.47;;;4.45;;
22318;SDS011;11327;52.334;9.506;2022-10-28T16:54:35;10.32;;;3.67;;
22318;SDS011;11327;52.334;9.506;2022-10-28T16:57:56;10.48;;;3.52;;
22318;SDS011;11327;52.334;9.506;2022-10-28T17:01:18;11.53;;;4.15;;
22318;SDS011;11327;52.334;9.506;2022-10-28T17:04:40;13.60;;;4.15;;
22318;SDS011;11327;52.334;9.506;2022-10-28T17:08:01;12.05;;;4.20;;
22318;SDS011;11327;52.334;9.506;2022-10-28T17:11:22;13.08;;;4.60;;
22318;SDS011;11327;52.334;9.506;2022-10-28T17:14:43;10.40;;;3.80;;
22318;SDS011;11327;52.334;9.506;2022-10-28T17:18:04;9.95;;;3.98;;
22318;SDS011;11327;52.334;9.506;2022-10-28T17:21:25;15.25;;;3.98;;
22318;SDS011;11327;52.334;9.506;2022-10-28T17:24:46;14.83;;;4.28;;
22318;SDS011;11327;52.334;9.506;2022-10-28T17:28:07;11.83;;;4.00;;
22318;SDS011;11327;52.334;9.506;2022-10-28T17:31:28;11.48;;;3.87;;
22318;SDS011;11327;52.334;9.506;2022-10-28T17:34:49;10.58;;;3.92;;
22318;SDS011;11327;52.334;9.506;2022-10-28T17:38:10;12.37;;;4.08;;
22318;SDS011;11327;52.334;9.506;2022-10-28T17:41:31;10.20;;;4.15;;
22318;SDS011;11327;52.334;9.506;2022-10-28T17:44:52;10.75;;;4.08;;
22318;SDS011;11327;52.334;9.506;2022-10-28T17:48:13;13.08;;;4.00;;
22318;SDS011;11327;52.334;9.506;2022-10-28T17:51:35;11.25;;;3.80;;
22318;SDS011;11327;52.334;9.506;2022-10-28T17:54:56;14.63;;;4.00;;
22318;SDS011;11327;52.334;9.506;2022-10-28T17:58:17;15.08;;;4.08;;
22318;SDS011;11327;52.334;9.506;2022-10-28T18:01:38;9.45;;;3.52;;
22318;SDS011;11327;52.334;9.506;2022-10-28T18:04:59;9.33;;;3.70;;
22318;SDS011;11327;52.334;9.506;2022-10-28T18:08:20;10.50;;;3.92;;
22318;SDS011;11327;52.334;9.506;2022-10-28T18:11:42;11.30;;;4.22;;
22318;SDS011;11327;52.334;9.506;2022-10-28T18:15:03;9.38;;;3.87;;
22318;SDS011;11327;52.334;9.506;2022-10-28T18:18:24;11.43;;;4.08;;
22318;SDS011;11327;52.334;9.506;2022-10-28T18:21:46;15.35;;;4.85;;
22318;SDS011;11327;52.334;9.506;2022-10-28T18:25:07;8.45;;;4.30;;
22318;SDS011;11327;52.334;9.506;2022-10-28T18:28:29;13.15;;;4.17;;
22318;SDS011;11327;52.334;9.506;2022-10-28T18:31:50;11.80;;;4.25;;
22318;SDS011;11327;52.334;9.506;2022-10-28T18:35:11;10.88;;;4.00;;
22318;SDS011;11327;52.334;9.506;2022-10-28T18:38:32;10.82;;;3.65;;
22318;SDS011;11327;52.334;9.506;2022-10-28T18:41:53;10.05;;;3.85;;
22318;SDS011;11327;52.334;9.506;2022-10-28T18:45:14;11.15;;;3.75;;
22318;SDS011;11327;52.334;9.506;2022-10-28T18:48:35;10.35;;;3.90;;
22318;SDS011;11327;52.334;9.506;2022-10-28T18:51:56;9.60;;;3.62;;
22318;SDS011;11327;52.334;9.506;2022-10-28T18:55:19;10.38;;;4.10;;
22318;SDS011;11327;52.334;9.506;2022-10-28T18:58:40;12.80;;;3.90;;
22318;SDS011;11327;52.334;9.506;2022-10-28T19:02:01;14.45;;;4.22;;
22318;SDS011;11327;52.334;9.506;2022-10-28T19:05:22;8.10;;;4.20;;
22318;SDS011;11327;52.334;9.506;2022-10-28T19:08:43;11.78;;;4.03;;
22318;SDS011;11327;52.334;9.506;2022-10-28T19:12:04;10.43;;;4.33;;
22318;SDS011;11327;52.334;9.506;2022-10-28T19:15:26;12.60;;;4.12;;
22318;SDS011;11327;52.334;9.506;2022-10-28T19:18:47;14.28;;;3.90;;
22318;SDS011;11327;52.334;9.506;2022-10-28T19:22:09;11.33;;;4.20;;
22318;SDS011;11327;52.334;9.506;2022-10-28T19:25:31;10.78;;;4.10;;
22318;SDS011;11327;52.334;9.506;2022-10-28T19:28:52;9.13;;;4.17;;
22318;SDS011;11327;52.334;9.506;2022-10-28T19:32:13;12.73;;;4.83;;
22318;SDS011;11327;52.334;9.506;2022-10-28T19:35:34;12.58;;;4.00;;
22318;SDS011;11327;52.334;9.506;2022-10-28T19:38:56;14.13;;;4.30;;
22318;SDS011;11327;52.334;9.506;2022-10-28T19:42:17;14.87;;;5.10;;
22318;SDS011;11327;52.334;9.506;2022-10-28T19:45:38;12.35;;;4.90;;
22318;SDS011;11327;52.334;9.506;2022-10-28T19:49:00;10.78;;;4.70;;
22318;SDS011;11327;52.334;9.506;2022-10-28T19:52:24;11.60;;;4.35;;
22318;SDS011;11327;52.334;9.506;2022-10-28T19:55:45;13.68;;;4.60;;
22318;SDS011;11327;52.334;9.506;2022-10-28T19:59:06;12.37;;;4.75;;
22318;SDS011;11327;52.334;9.506;2022-10-28T20:02:27;11.57;;;4.25;;
22318;SDS011;11327;52.334;9.506;2022-10-28T20:05:48;10.98;;;4.50;;
22318;SDS011;11327;52.334;9.506;2022-10-28T20:09:11;14.40;;;4.78;;
22318;SDS011;11327;52.334;9.506;2022-10-28T20:12:32;10.08;;;4.70;;
22318;SDS011;11327;52.334;9.506;2022-10-28T20:15:53;15.30;;;5.08;;
22318;SDS011;11327;52.334;9.506;2022-10-28T20:19:14;15.38;;;5.05;;
22318;SDS011;11327;52.334;9.506;2022-10-28T20:22:35;12.18;;;4.78;;
22318;SDS011;11327;52.334;9.506;2022-10-28T20:25:56;10.95;;;4.30;;
22318;SDS011;11327;52.334;9.506;2022-10-28T20:29:17;14.15;;;4.95;;
22318;SDS011;11327;52.334;9.506;2022-10-28T20:32:38;11.33;;;5.12;;
22318;SDS011;11327;52.334;9.506;2022-10-28T20:35:59;15.05;;;4.67;;
22318;SDS011;11327;52.334;9.506;2022-10-28T20:39:21;11.45;;;4.60;;
22318;SDS011;11327;52.334;9.506;2022-10-28T20:42:42;13.83;;;4.45;;
22318;SDS011;11327;52.334;9.506;2022-10-28T20:46:03;12.98;;;4.80;;
22318;SDS011;11327;52.334;9.506;2022-10-28T20:49:25;10.95;;;4.62;;
22318;SDS011;11327;52.334;9.506;2022-10-28T20:52:45;13.98;;;4.62;;
22318;SDS011;11327;52.334;9.506;2022-10-28T20:56:07;12.35;;;5.17;;
22318;SDS011;11327;52.334;9.506;2022-10-28T20:59:30;16.17;;;5.08;;
22318;SDS011;11327;52.334;9.506;2022-10-28T21:02:52;14.83;;;4.60;;
22318;SDS011;11327;52.334;9.506;2022-10-28T21:06:14;9.83;;;4.37;;
22318;SDS011;11327;52.334;9.506;2022-10-28T21:09:36;10.48;;;4.95;;
22318;SDS011;11327;52.334;9.506;2022-10-28T21:12:57;10.78;;;4.40;;
22318;SDS011;11327;52.334;9.506;2022-10-28T21:16:18;10.82;;;4.72;;
22318;SDS011;11327;52.334;9.506;2022-10-28T21:19:39;10.72;;;4.87;;
22318;SDS011;11327;52.334;9.506;2022-10-28T21:23:00;10.53;;;4.15;;
22318;SDS011;11327;52.334;9.506;2022-10-28T21:26:21;11.48;;;4.45;;
22318;SDS011;11327;52.334;9.506;2022-10-28T21:29:42;13.22;;;4.53;;
22318;SDS011;11327;52.334;9.506;2022-10-28T21:33:03;10.98;;;4.25;;
22318;SDS011;11327;52.334;9.506;2022-10-28T21:36:24;6.92;;;4.28;;
22318;SDS011;11327;52.334;9.506;2022-10-28T21:39:45;10.55;;;4.22;;
22318;SDS011;11327;52.334;9.506;2022-10-28T21:43:07;9.38;;;4.30;;
22318;SDS011;11327;52.334;9.506;2022-10-28T21:46:30;8.45;;;3.72;;
22318;SDS011;11327;52.334;9.506;2022-10-28T21:49:51;11.38;;;4.05;;
22318;SDS011;11327;52.334;9.506;2022-10-28T21:53:11;9.00;;;4.20;;
22318;SDS011;11327;52.334;9.506;2022-10-28T21:56:32;8.90;;;4.22;;
22318;SDS011;11327;52.334;9.506;2022-10-28T21:59:53;10.30;;;4.10;;
22318;SDS011;11327;52.334;9.506;2022-10-28T22:06:56;10.30;;;4.10;;
22318;SDS011;11327;52.334;9.506;2022-10-28T22:10:16;9.18;;;4.20;;
22318;SDS011;11327;52.334;9.506;2022-10-28T22:13:37;10.82;;;4.20;;
22318;SDS011;11327;52.334;9.506;2022-10-28T22:16:58;7.45;;;3.90;;
22318;SDS011;11327;52.334;9.506;2022-10-28T22:20:19;10.68;;;4.40;;
22318;SDS011;11327;52.334;9.506;2022-10-28T22:23:40;12.25;;;5.00;;
22318;SDS011;11327;52.334;9.506;2022-10-28T22:27:02;9.75;;;4.40;;
22318;SDS011;11327;52.334;9.506;2022-10-28T22:30:23;9.98;;;4.17;;
22318;SDS011;11327;52.334;9.506;2022-10-28T22:33:44;9.75;;;4.60;;
22318;SDS011;11327;52.334;9.506;2022-10-28T22:37:05;10.40;;;4.58;;
22318;SDS011;11327;52.334;9.506;2022-10-28T22:40:26;11.12;;;4.20;;
22318;SDS011;11327;52.334;9.506;2022-10-28T22:43:50;9.25;;;4.50;;
22318;SDS011;11327;52.334;9.506;2022-10-28T22:47:12;8.58;;;4.75;;
22318;SDS011;11327;52.334;9.506;2022-10-28T22:50:32;11.22;;;4.33;;
22318;SDS011;11327;52.334;9.506;2022-10-28T22:53:53;10.13;;;4.35;;
22318;SDS011;11327;52.334;9.506;2022-10-28T22:57:14;10.63;;;4.67;;
22318;SDS011;11327;52.334;9.506;2022-10-28T23:00:35;9.98;;;4.60;;
22318;SDS011;11327;52.334;9.506;2022-10-28T23:03:56;12.07;;;4.53;;
22318;SDS011;11327;52.334;9.506;2022-10-28T23:07:18;8.40;;;4.22;;
22318;SDS011;11327;52.334;9.506;2022-10-28T23:10:39;9.95;;;3.87;;
22318;SDS011;11327;52.334;9.506;2022-10-28T23:14:00;8.23;;;4.30;;
22318;SDS011;11327;52.334;9.506;2022-10-28T23:17:21;9.60;;;4.58;;